createdAt,value
2022-08-27T00:01:15.425Z,8.20
2022-08-27T00:03:45.440Z,5.93
2022-08-27T00:06:14.849Z,3.38
2022-08-27T00:08:42.015Z,5.75
2022-08-27T00:11:10.548Z,7.40
2022-08-27T00:13:38.918Z,6.82
2022-08-27T00:16:07.862Z,5.25
2022-08-27T00:21:03.086Z,7.83
2022-08-27T00:23:30.343Z,4.15
2022-08-27T00:25:58.059Z,5.57
2022-08-27T00:28:27.215Z,6.65
2022-08-27T00:30:54.210Z,7.13
2022-08-27T00:33:21.122Z,6.22
2022-08-27T00:35:48.756Z,6.65
2022-08-27T00:38:15.656Z,9.43
2022-08-27T00:40:42.698Z,4.43
2022-08-27T00:43:10.281Z,4.88
2022-08-27T00:45:43.693Z,5.85
2022-08-27T00:48:14.447Z,6.68
2022-08-27T00:50:51.419Z,6.28
2022-08-27T00:53:21.018Z,4.35
2022-08-27T00:55:54.926Z,9.20
2022-08-27T00:58:27.201Z,6.68
2022-08-27T01:00:56.288Z,5.45
2022-08-27T01:03:24.390Z,6.80
2022-08-27T01:05:52.118Z,3.80
2022-08-27T01:08:22.738Z,4.95
2022-08-27T01:10:51.662Z,11.30
2022-08-27T01:13:59.276Z,4.00
2022-08-27T01:16:28.893Z,7.22
2022-08-27T01:18:57.947Z,6.47
2022-08-27T01:21:34.132Z,7.15
2022-08-27T01:24:06.253Z,7.70
2022-08-27T01:26:35.255Z,7.55
2022-08-27T01:29:02.498Z,6.38
2022-08-27T01:31:32.067Z,7.85
2022-08-27T01:34:03.492Z,6.82
2022-08-27T01:36:32.604Z,7.32
2022-08-27T01:39:02.478Z,7.80
2022-08-27T01:41:29.467Z,7.72
2022-08-27T01:44:00.154Z,5.85
2022-08-27T01:46:28.743Z,10.45
2022-08-27T01:48:55.998Z,10.10
2022-08-27T01:51:23.148Z,9.18
2022-08-27T01:53:50.688Z,5.93
2022-08-27T01:56:17.646Z,6.07
2022-08-27T01:58:44.474Z,6.47
2022-08-27T02:01:22.111Z,7.55
2022-08-27T02:03:51.907Z,6.95
2022-08-27T02:06:19.374Z,6.60
2022-08-27T02:08:48.884Z,7.97
2022-08-27T02:11:15.844Z,5.90
2022-08-27T02:13:43.498Z,11.05
2022-08-27T02:16:10.331Z,6.75
2022-08-27T02:18:38.624Z,8.45
2022-08-27T02:21:15.673Z,10.02
2022-08-27T02:23:42.511Z,10.23
2022-08-27T02:26:09.953Z,10.48
2022-08-27T02:28:37.087Z,10.77
2022-08-27T02:31:04.270Z,10.75
2022-08-27T02:33:31.795Z,7.93
2022-08-27T02:36:00.498Z,7.68
2022-08-27T02:38:27.559Z,8.13
2022-08-27T02:40:57.208Z,10.85
2022-08-27T02:45:52.494Z,8.55
2022-08-27T02:48:26.473Z,6.35
2022-08-27T02:50:55.854Z,7.22
2022-08-27T02:53:24.628Z,10.65
2022-08-27T02:55:51.458Z,9.57
2022-08-27T02:58:18.324Z,9.32
2022-08-27T03:00:45.988Z,10.05
2022-08-27T03:03:15.275Z,8.05
2022-08-27T03:05:42.148Z,7.20
2022-08-27T03:08:09.859Z,6.50
2022-08-27T03:10:38.186Z,6.88
2022-08-27T03:13:05.009Z,8.00
2022-08-27T03:15:32.476Z,6.88
2022-08-27T03:17:59.291Z,6.40
2022-08-27T03:20:26.954Z,9.95
2022-08-27T03:22:54.597Z,7.32
2022-08-27T03:25:21.816Z,7.53
2022-08-27T03:27:50.193Z,9.15
2022-08-27T03:30:20.818Z,6.82
2022-08-27T03:32:47.943Z,8.73
2022-08-27T03:35:15.355Z,9.27
2022-08-27T03:37:42.828Z,5.70
2022-08-27T03:40:10.637Z,9.80
2022-08-27T03:42:38.292Z,11.07
2022-08-27T03:45:09.312Z,7.43
2022-08-27T03:47:36.731Z,5.93
2022-08-27T03:50:04.233Z,7.18
2022-08-27T03:52:37.803Z,8.80
2022-08-27T03:55:06.724Z,8.00
2022-08-27T03:57:37.114Z,9.65
2022-08-27T04:00:09.044Z,8.23
2022-08-27T04:02:36.507Z,6.45
2022-08-27T04:05:03.669Z,9.50
2022-08-27T04:07:30.696Z,6.25
2022-08-27T04:09:58.138Z,12.10
2022-08-27T04:12:25.163Z,7.72
2022-08-27T04:14:54.247Z,9.43
2022-08-27T04:17:23.059Z,8.15
2022-08-27T04:19:52.094Z,6.68
2022-08-27T04:22:19.688Z,7.07
2022-08-27T04:24:47.210Z,7.38
2022-08-27T04:27:14.070Z,8.98
2022-08-27T04:29:41.538Z,10.48
2022-08-27T04:32:09.006Z,7.28
2022-08-27T04:34:37.186Z,9.30
2022-08-27T04:37:05.135Z,6.20
2022-08-27T04:39:34.709Z,7.78
2022-08-27T04:42:04.691Z,8.10
2022-08-27T04:44:34.315Z,7.55
2022-08-27T04:49:32.413Z,6.63
2022-08-27T04:52:03.041Z,7.85
2022-08-27T04:54:32.818Z,8.85
2022-08-27T04:57:05.769Z,7.40
2022-08-27T04:59:33.174Z,7.88
2022-08-27T05:02:00.685Z,6.90
2022-08-27T05:04:31.586Z,11.43
2022-08-27T05:06:58.394Z,7.95
2022-08-27T05:09:27.329Z,6.78
2022-08-27T05:11:54.960Z,7.80
2022-08-27T05:16:51.206Z,7.20
2022-08-27T05:19:18.130Z,9.40
2022-08-27T05:21:47.462Z,9.32
2022-08-27T05:24:15.914Z,8.70
2022-08-27T05:26:44.921Z,6.07
2022-08-27T05:31:40.981Z,5.07
2022-08-27T05:34:11.474Z,6.03
2022-08-27T05:36:47.967Z,7.57
2022-08-27T05:39:15.702Z,6.97
2022-08-27T05:41:47.575Z,8.07
2022-08-27T05:44:39.609Z,5.57
2022-08-27T05:47:02.779Z,9.32
2022-08-27T05:49:29.795Z,6.43
2022-08-27T05:51:56.608Z,7.18
2022-08-27T05:54:26.941Z,9.82
2022-08-27T05:56:55.358Z,6.72
2022-08-27T05:59:22.241Z,6.53
2022-08-27T06:01:51.820Z,5.65
2022-08-27T06:04:20.431Z,7.30
2022-08-27T06:06:48.410Z,7.50
2022-08-27T06:09:18.382Z,7.93
2022-08-27T06:11:45.268Z,7.45
2022-08-27T06:14:13.882Z,10.82
2022-08-27T06:16:42.044Z,7.25
2022-08-27T06:19:11.129Z,6.43
2022-08-27T06:21:44.351Z,5.15
2022-08-27T06:24:12.838Z,6.35
2022-08-27T06:26:45.964Z,4.40
2022-08-27T06:29:17.950Z,7.88
2022-08-27T06:31:44.766Z,6.03
2022-08-27T06:34:11.626Z,5.82
2022-08-27T06:36:41.429Z,5.95
2022-08-27T06:39:09.427Z,6.63
2022-08-27T06:41:36.239Z,7.15
2022-08-27T06:44:05.615Z,5.65
2022-08-27T06:46:33.876Z,6.88
2022-08-27T06:49:01.140Z,6.60
2022-08-27T06:51:30.589Z,9.50
2022-08-27T06:53:59.409Z,7.00
2022-08-27T06:56:29.858Z,6.75
2022-08-27T06:59:06.243Z,6.38
2022-08-27T07:01:42.137Z,7.78
2022-08-27T07:04:12.504Z,5.88
2022-08-27T07:06:42.348Z,5.97
2022-08-27T07:09:10.687Z,8.38
2022-08-27T07:11:37.767Z,6.17
2022-08-27T07:14:08.015Z,5.57
2022-08-27T07:16:36.335Z,6.30
2022-08-27T07:19:05.485Z,5.93
2022-08-27T07:21:33.582Z,5.07
2022-08-27T07:24:02.478Z,4.55
2022-08-27T07:26:29.455Z,4.93
2022-08-27T07:28:56.318Z,4.45
2022-08-27T07:33:52.728Z,5.63
2022-08-27T07:36:22.188Z,4.72
2022-08-27T07:38:56.720Z,5.57
2022-08-27T07:41:30.917Z,4.90
2022-08-27T07:43:59.111Z,5.88
2022-08-27T07:46:26.983Z,4.13
2022-08-27T07:48:54.197Z,4.50
2022-08-27T07:51:26.242Z,4.50
2022-08-27T07:53:53.989Z,5.43
2022-08-27T07:56:21.485Z,2.73
2022-08-27T07:58:51.562Z,4.90
2022-08-27T08:01:21.269Z,3.90
2022-08-27T08:03:48.129Z,6.50
2022-08-27T08:06:18.660Z,4.38
2022-08-27T08:08:46.808Z,4.25
2022-08-27T08:11:19.051Z,5.05
2022-08-27T08:13:47.358Z,2.15
2022-08-27T08:16:14.855Z,3.90
2022-08-27T08:18:41.774Z,5.32
2022-08-27T08:21:11.974Z,2.92
2022-08-27T08:23:39.345Z,1.92
2022-08-27T08:26:07.978Z,5.78
2022-08-27T08:28:36.091Z,4.47
2022-08-27T08:31:03.363Z,2.95
2022-08-27T08:33:30.266Z,2.47
2022-08-27T08:36:03.709Z,4.05
2022-08-27T08:38:30.891Z,4.05
2022-08-27T08:40:58.770Z,3.73
2022-08-27T08:43:32.902Z,2.47
2022-08-27T08:46:09.354Z,3.10
2022-08-27T08:48:40.170Z,5.32
2022-08-27T08:51:17.389Z,3.35
2022-08-27T08:53:52.570Z,4.60
2022-08-27T08:56:24.195Z,3.00
2022-08-27T08:58:58.583Z,2.95
2022-08-27T09:01:27.430Z,2.25
2022-08-27T09:03:57.750Z,4.50
2022-08-27T09:06:35.958Z,3.22
2022-08-27T09:09:14.140Z,3.08
2022-08-27T09:11:49.687Z,2.40
2022-08-27T09:14:28.391Z,3.20
2022-08-27T09:16:56.616Z,3.40
2022-08-27T09:19:25.545Z,3.30
2022-08-27T09:22:18.230Z,4.72
2022-08-27T09:24:52.885Z,3.15
2022-08-27T09:27:21.971Z,3.53
2022-08-27T09:29:52.815Z,4.32
2022-08-27T09:32:23.928Z,3.55
2022-08-27T09:34:56.943Z,7.22
2022-08-27T09:37:34.622Z,3.92
2022-08-27T09:42:46.034Z,4.55
2022-08-27T09:45:20.970Z,5.47
2022-08-27T09:47:50.285Z,4.38
2022-08-27T09:50:20.243Z,1.40
2022-08-27T09:52:55.483Z,2.42
2022-08-27T09:55:43.391Z,3.08
2022-08-27T09:58:18.760Z,2.67
2022-08-27T10:00:48.925Z,3.75
2022-08-27T10:03:15.955Z,2.38
2022-08-27T10:05:48.407Z,2.85
2022-08-27T10:08:23.129Z,4.53
2022-08-27T10:10:56.667Z,3.20
2022-08-27T10:13:30.781Z,3.40
2022-08-27T10:16:25.740Z,2.67
2022-08-27T10:19:00.160Z,2.85
2022-08-27T10:21:33.869Z,4.90
2022-08-27T10:24:14.017Z,3.30
2022-08-27T10:26:48.920Z,4.28
2022-08-27T10:29:28.566Z,2.72
2022-08-27T10:32:09.833Z,3.60
2022-08-27T10:34:45.919Z,2.83
2022-08-27T10:37:26.286Z,4.90
2022-08-27T10:40:12.606Z,3.45
2022-08-27T10:42:47.026Z,5.75
2022-08-27T10:45:30.639Z,3.58
2022-08-27T10:48:11.389Z,2.67
2022-08-27T10:50:45.512Z,5.60
2022-08-27T10:53:25.259Z,3.28
2022-08-27T10:56:04.822Z,2.90
2022-08-27T10:58:42.631Z,2.45
2022-08-27T11:01:17.230Z,5.80
2022-08-27T11:03:50.260Z,4.20
2022-08-27T11:06:23.228Z,3.80
2022-08-27T11:08:53.923Z,2.95
2022-08-27T11:14:25.980Z,3.50
2022-08-27T11:16:59.344Z,2.67
2022-08-27T11:19:33.619Z,3.92
2022-08-27T11:22:08.207Z,3.35
2022-08-27T11:24:47.447Z,3.10
2022-08-27T11:27:20.714Z,6.30
2022-08-27T11:30:00.214Z,4.05
2022-08-27T11:32:38.631Z,3.47
2022-08-27T11:35:17.049Z,3.40
2022-08-27T11:38:11.060Z,2.53
2022-08-27T11:40:52.348Z,2.30
2022-08-27T11:43:26.020Z,5.80
2022-08-27T11:45:56.459Z,3.90
2022-08-27T11:48:28.895Z,3.97
2022-08-27T11:51:01.153Z,3.20
2022-08-27T11:53:51.838Z,4.00
2022-08-27T11:56:34.008Z,3.20
2022-08-27T11:59:11.014Z,3.45
2022-08-27T12:01:37.865Z,4.95
2022-08-27T12:04:07.675Z,4.18
2022-08-27T12:06:46.004Z,1.73
2022-08-27T12:09:19.527Z,3.25
2022-08-27T12:11:57.678Z,5.45
2022-08-27T12:14:38.707Z,4.18
2022-08-27T12:17:12.016Z,3.33
2022-08-27T12:19:52.438Z,2.97
2022-08-27T12:22:39.630Z,3.10
2022-08-27T12:25:07.155Z,4.93
2022-08-27T12:27:34.583Z,3.15
2022-08-27T12:30:05.927Z,1.75
2022-08-27T12:32:38.526Z,3.08
2022-08-27T12:35:10.885Z,2.72
2022-08-27T12:37:46.984Z,3.25
2022-08-27T12:40:24.603Z,2.63
2022-08-27T12:43:04.047Z,4.05
2022-08-27T12:45:30.899Z,3.38
2022-08-27T12:47:58.610Z,2.65
2022-08-27T12:50:29.989Z,3.58
2022-08-27T12:53:10.203Z,2.38
2022-08-27T12:55:54.858Z,4.60
2022-08-27T12:58:35.862Z,4.00
2022-08-27T13:01:16.840Z,4.15
2022-08-27T13:03:48.878Z,3.53
2022-08-27T13:06:19.685Z,3.13
2022-08-27T13:08:55.257Z,2.60
2022-08-27T13:11:24.050Z,2.72
2022-08-27T13:13:52.479Z,2.85
2022-08-27T13:16:22.446Z,2.43
2022-08-27T13:18:50.491Z,6.18
2022-08-27T13:23:57.678Z,5.93
2022-08-27T13:26:29.608Z,2.83
2022-08-27T13:29:02.631Z,3.10
2022-08-27T13:31:32.836Z,7.22
2022-08-27T13:34:01.029Z,4.00
2022-08-27T13:36:32.165Z,3.85
2022-08-27T13:39:02.758Z,3.38
2022-08-27T13:41:34.699Z,5.20
2022-08-27T13:44:08.619Z,3.72
2022-08-27T13:46:46.291Z,5.22
2022-08-27T13:49:17.181Z,4.40
2022-08-27T13:51:44.172Z,3.33
2022-08-27T13:54:13.668Z,4.45
2022-08-27T13:56:55.363Z,4.00
2022-08-27T13:59:25.366Z,6.70
2022-08-27T14:01:58.713Z,2.20
2022-08-27T14:04:34.930Z,2.60
2022-08-27T14:07:09.756Z,4.43
2022-08-27T14:09:43.420Z,3.85
2022-08-27T14:12:18.293Z,4.35
2022-08-27T14:14:45.304Z,3.72
2022-08-27T14:17:24.151Z,2.67
2022-08-27T14:19:56.335Z,3.28
2022-08-27T14:22:24.094Z,3.40
2022-08-27T14:25:03.363Z,5.03
2022-08-27T14:27:31.951Z,3.55
2022-08-27T14:29:58.803Z,4.25
2022-08-27T14:32:28.490Z,2.03
2022-08-27T14:34:55.968Z,3.78
2022-08-27T14:37:22.880Z,5.25
2022-08-27T14:39:49.995Z,3.28
2022-08-27T14:42:19.359Z,4.15
2022-08-27T14:44:46.441Z,3.85
2022-08-27T14:47:15.111Z,3.50
2022-08-27T14:49:44.986Z,3.05
2022-08-27T14:52:13.813Z,3.15
2022-08-27T14:54:44.207Z,3.53
2022-08-27T14:57:12.052Z,5.38
2022-08-27T14:59:40.388Z,5.28
2022-08-27T15:02:11.709Z,8.13
2022-08-27T15:04:42.342Z,5.13
2022-08-27T15:07:16.493Z,3.72
2022-08-27T15:09:44.543Z,7.25
2022-08-27T15:12:23.040Z,7.47
2022-08-27T15:14:55.432Z,2.90
2022-08-27T15:20:05.915Z,5.00
2022-08-27T15:22:33.956Z,6.05
2022-08-27T15:25:03.107Z,5.60
2022-08-27T15:27:38.070Z,7.60
2022-08-27T15:30:13.033Z,6.57
2022-08-27T15:32:42.905Z,8.05
2022-08-27T15:35:12.898Z,6.13
2022-08-27T15:37:40.814Z,3.97
2022-08-27T15:40:10.317Z,2.92
2022-08-27T15:42:37.339Z,7.45
2022-08-27T15:45:05.567Z,3.30
2022-08-27T15:47:34.979Z,3.67
2022-08-27T15:50:02.062Z,6.10
2022-08-27T15:52:40.657Z,4.15
2022-08-27T15:55:17.739Z,5.47
2022-08-27T15:57:44.551Z,2.28
2022-08-27T16:00:12.943Z,4.10
2022-08-27T16:02:42.062Z,3.17
2022-08-27T16:05:09.617Z,6.53
2022-08-27T16:07:39.043Z,4.68
2022-08-27T16:10:08.443Z,5.70
2022-08-27T16:12:35.231Z,2.38
2022-08-27T16:15:03.071Z,10.90
2022-08-27T16:17:30.004Z,4.50
2022-08-27T16:20:03.270Z,5.03
2022-08-27T16:22:30.658Z,4.18
2022-08-27T16:24:57.546Z,8.10
2022-08-27T16:27:27.455Z,6.78
2022-08-27T16:29:57.730Z,9.52
2022-08-27T16:32:28.350Z,7.60
2022-08-27T16:34:56.298Z,6.25
2022-08-27T16:37:24.976Z,6.43
2022-08-27T16:39:52.027Z,5.25
2022-08-27T16:42:20.173Z,8.02
2022-08-27T16:44:46.967Z,4.70
2022-08-27T16:47:13.840Z,5.18
2022-08-27T16:49:41.436Z,3.53
2022-08-27T16:52:10.613Z,4.07
2022-08-27T16:54:41.035Z,4.97
2022-08-27T16:57:08.614Z,3.42
2022-08-27T16:59:35.390Z,6.32
2022-08-27T17:02:05.316Z,2.05
2022-08-27T17:04:37.970Z,4.40
2022-08-27T17:07:09.263Z,4.97
2022-08-27T17:09:38.621Z,5.35
2022-08-27T17:12:08.759Z,4.47
2022-08-27T17:14:36.349Z,4.45
2022-08-27T17:17:07.056Z,3.42
2022-08-27T17:19:36.871Z,4.50
2022-08-27T17:22:05.247Z,6.97
2022-08-27T17:24:33.863Z,3.30
2022-08-27T17:27:05.950Z,2.90
2022-08-27T17:29:32.881Z,6.35
2022-08-27T17:32:00.990Z,4.82
2022-08-27T17:37:00.385Z,5.45
2022-08-27T17:39:28.488Z,1.77
2022-08-27T17:41:55.394Z,8.38
2022-08-27T17:44:32.228Z,2.75
2022-08-27T17:47:03.184Z,5.40
2022-08-27T17:49:30.606Z,4.30
2022-08-27T17:52:03.660Z,6.28
2022-08-27T17:54:34.612Z,3.40
2022-08-27T17:57:02.516Z,6.40
2022-08-27T17:59:30.725Z,4.67
2022-08-27T18:02:02.671Z,5.28
2022-08-27T18:04:29.507Z,6.00
2022-08-27T18:06:59.148Z,4.55
2022-08-27T18:09:26.571Z,6.13
2022-08-27T18:11:53.471Z,5.18
2022-08-27T18:14:23.287Z,5.63
2022-08-27T18:16:52.155Z,6.50
2022-08-27T18:19:19.006Z,5.90
2022-08-27T18:21:46.301Z,5.38
2022-08-27T18:24:18.412Z,5.75
2022-08-27T18:26:45.245Z,3.70
2022-08-27T18:29:13.956Z,6.47
2022-08-27T18:31:42.690Z,4.75
2022-08-27T18:34:20.509Z,4.22
2022-08-27T18:36:49.502Z,3.85
2022-08-27T18:39:16.304Z,4.93
2022-08-27T18:41:43.357Z,9.50
2022-08-27T18:44:17.793Z,6.10
2022-08-27T18:46:45.195Z,7.60
2022-08-27T18:49:14.056Z,3.30
2022-08-27T18:51:42.520Z,3.85
2022-08-27T18:54:10.025Z,5.85
2022-08-27T18:56:37.414Z,5.00
2022-08-27T18:59:08.969Z,4.45
2022-08-27T19:01:41.575Z,6.75
2022-08-27T19:04:12.616Z,3.22
2022-08-27T19:06:40.838Z,6.50
2022-08-27T19:09:07.601Z,3.63
2022-08-27T19:11:34.968Z,6.00
2022-08-27T19:14:01.789Z,5.28
2022-08-27T19:16:45.419Z,4.93
2022-08-27T19:19:16.556Z,3.65
2022-08-27T19:21:50.683Z,3.17
2022-08-27T19:24:19.655Z,3.97
2022-08-27T19:26:49.974Z,3.80
2022-08-27T19:29:16.860Z,5.20
2022-08-27T19:31:44.340Z,4.68
2022-08-27T19:34:11.376Z,3.22
2022-08-27T19:36:43.543Z,3.72
2022-08-27T19:39:13.092Z,3.88
2022-08-27T19:41:40.239Z,4.18
2022-08-27T19:44:07.044Z,4.65
2022-08-27T19:46:35.828Z,5.35
2022-08-27T19:49:02.773Z,4.45
2022-08-27T19:51:29.830Z,7.57
2022-08-27T19:53:57.251Z,6.38
2022-08-27T19:56:25.663Z,5.43
2022-08-27T19:58:56.673Z,4.32
2022-08-27T20:01:26.105Z,6.15
2022-08-27T20:03:52.961Z,7.30
2022-08-27T20:06:24.492Z,4.25
2022-08-27T20:08:51.906Z,5.22
2022-08-27T20:11:18.700Z,3.25
2022-08-27T20:13:50.735Z,4.57
2022-08-27T20:16:18.504Z,5.15
2022-08-27T20:18:45.452Z,4.18
2022-08-27T20:21:12.235Z,3.88
2022-08-27T20:23:42.575Z,5.57
2022-08-27T20:26:09.383Z,4.88
2022-08-27T20:28:40.129Z,5.28
2022-08-27T20:31:09.291Z,4.57
2022-08-27T20:33:36.163Z,3.95
2022-08-27T20:36:03.107Z,4.05
2022-08-27T20:38:30.479Z,5.00
2022-08-27T20:40:57.707Z,7.47
2022-08-27T20:43:24.483Z,4.47
2022-08-27T20:45:52.178Z,4.47
2022-08-27T20:48:20.573Z,6.10
2022-08-27T20:50:47.479Z,5.35
2022-08-27T20:53:14.884Z,4.80
2022-08-27T20:55:41.832Z,6.97
2022-08-27T20:58:08.801Z,5.00
2022-08-27T21:00:41.289Z,5.60
2022-08-27T21:03:08.525Z,5.82
2022-08-27T21:05:37.794Z,6.55
2022-08-27T21:08:06.458Z,4.30
2022-08-27T21:10:34.180Z,5.47
2022-08-27T21:13:04.837Z,8.48
2022-08-27T21:15:32.210Z,6.57
2022-08-27T21:18:01.533Z,9.57
2022-08-27T21:20:29.014Z,6.80
2022-08-27T21:22:57.194Z,8.63
2022-08-27T21:25:24.147Z,5.45
2022-08-27T21:27:51.864Z,6.57
2022-08-27T21:30:19.107Z,6.97
2022-08-27T21:32:46.088Z,6.18
2022-08-27T21:35:13.900Z,8.32
2022-08-27T21:37:40.698Z,6.25
2022-08-27T21:40:10.016Z,9.15
2022-08-27T21:42:45.533Z,7.22
2022-08-27T21:45:12.442Z,5.78
2022-08-27T21:47:42.501Z,8.77
2022-08-27T21:50:12.908Z,8.50
2022-08-27T21:52:39.976Z,7.13
2022-08-27T21:55:09.935Z,11.18
2022-08-27T21:57:36.725Z,14.20
2022-08-27T22:00:10.731Z,6.00
2022-08-27T22:02:40.079Z,7.78
2022-08-27T22:05:08.537Z,8.45
2022-08-27T22:07:35.360Z,8.25
2022-08-27T22:10:02.938Z,5.38
2022-08-27T22:12:33.675Z,8.60
2022-08-27T22:15:03.090Z,7.28
2022-08-27T22:17:30.563Z,8.48
2022-08-27T22:19:57.469Z,9.50
2022-08-27T22:22:24.265Z,7.63
2022-08-27T22:24:58.215Z,6.03
2022-08-27T22:27:25.016Z,9.57
2022-08-27T22:29:56.121Z,6.88
2022-08-27T22:32:23.748Z,9.93
2022-08-27T22:34:50.672Z,6.57
2022-08-27T22:37:17.548Z,7.97
2022-08-27T22:39:44.912Z,6.70
2022-08-27T22:42:13.934Z,7.90
2022-08-27T22:44:45.299Z,8.43
2022-08-27T22:47:18.330Z,11.73
2022-08-27T22:49:52.968Z,9.57
2022-08-27T22:52:19.931Z,6.82
2022-08-27T22:54:50.642Z,9.85
2022-08-27T22:57:21.696Z,9.43
2022-08-27T22:59:51.132Z,6.60
2022-08-27T23:02:19.900Z,10.52
2022-08-27T23:04:56.358Z,7.50
2022-08-27T23:07:24.411Z,11.18
2022-08-27T23:09:51.434Z,6.65
2022-08-27T23:12:18.337Z,8.32
2022-08-27T23:14:45.714Z,11.57
2022-08-27T23:17:12.520Z,8.48
2022-08-27T23:19:40.650Z,9.93
2022-08-27T23:22:08.431Z,7.43
2022-08-27T23:24:35.352Z,8.30
2022-08-27T23:27:02.191Z,8.38
2022-08-27T23:29:29.635Z,8.38
2022-08-27T23:31:56.472Z,8.18
2022-08-27T23:34:23.299Z,9.30
2022-08-27T23:36:52.107Z,9.10
2022-08-27T23:39:19.034Z,8.95
2022-08-27T23:41:45.791Z,10.90
2022-08-27T23:44:14.904Z,9.40
2022-08-27T23:46:41.945Z,10.82
2022-08-27T23:49:08.738Z,8.90
2022-08-27T23:51:36.096Z,8.07
2022-08-27T23:54:04.262Z,10.65
2022-08-27T23:56:31.035Z,11.02
2022-08-27T23:58:58.407Z,7.70
